Time;durP1;ratioP1;P1;durP2;ratioP2;P2;SDS_P1;SDS_P2;PMS_P1;PMS_P2;Temp;Humidity;BMP_temperature;BMP_pressure;BME280_temperature;BME280_humidity;BME280_pressure;Samples;Min_cycle;Max_cycle;Signal;HPM_P1;HPM_P2
2023/10/02 00:00:42;;;;;;;14.38;6.03;;;;;;;;;;4952617;28;92683;-82
2023/10/02 00:03:09;;;;;;;14.27;5.72;;;;;;;;;;4949898;28;95125;-82
2023/10/02 00:05:50;;;;;;;14.60;5.90;;;;;;;;;;4949666;28;93689;-83
2023/10/02 00:08:31;;;;;;;14.73;5.60;;;;;;;;;;4949464;28;92550;-82
2023/10/02 00:11:35;;;;;;;13.25;6.35;;;;;;;;;;4930661;28;93109;-82
2023/10/02 00:14:18;;;;;;;12.60;5.50;;;;;;;;;;4916861;28;93808;-81
2023/10/02 00:16:42;;;;;;;15.65;6.32;;;;;;;;;;4931109;28;92806;-82
2023/10/02 00:19:18;;;;;;;;;;;;;;;;;;4931673;28;93574;-82
2023/10/02 00:21:45;;;;;;;13.80;5.90;;;;;;;;;;4943383;28;91692;-82
2023/10/02 00:24:13;;;;;;;13.75;6.22;;;;;;;;;;4931790;28;97661;-82
2023/10/02 00:26:39;;;;;;;15.65;6.00;;;;;;;;;;4932527;28;92733;-82
2023/10/02 00:29:09;;;;;;;20.45;6.53;;;;;;;;;;4929711;28;94866;-81
2023/10/02 00:31:38;;;;;;;16.90;5.97;;;;;;;;;;4952368;28;96202;-81
2023/10/02 00:34:05;;;;;;;18.00;6.10;;;;;;;;;;4954726;28;92571;-82
2023/10/02 00:36:33;;;;;;;15.10;6.25;;;;;;;;;;4970017;28;93315;-82
2023/10/02 00:42:10;;;;;;;14.27;5.85;;;;;;;;;;4949886;28;93041;-81
2023/10/02 00:44:51;;;;;;;13.68;5.70;;;;;;;;;;4949606;28;98867;-82
2023/10/02 00:47:38;;;;;;;15.05;6.43;;;;;;;;;;4951246;28;93917;-82
2023/10/02 00:50:16;;;;;;;14.55;5.78;;;;;;;;;;4950304;28;92420;-82
2023/10/02 00:52:43;;;;;;;14.45;6.18;;;;;;;;;;4946838;28;94281;-82
2023/10/02 00:55:20;;;;;;;14.20;6.32;;;;;;;;;;4940105;28;98185;-82
2023/10/02 00:57:50;;;;;;;14.75;6.00;;;;;;;;;;4947498;28;98052;-81
2023/10/02 01:00:21;;;;;;;13.13;5.97;;;;;;;;;;4956479;28;94177;-82
2023/10/02 01:02:49;;;;;;;14.18;5.82;;;;;;;;;;4952627;28;92502;-82
2023/10/02 01:05:21;;;;;;;14.73;6.28;;;;;;;;;;4950080;28;93865;-81
2023/10/02 01:07:53;;;;;;;14.95;6.45;;;;;;;;;;4949086;28;93323;-82
2023/10/02 01:10:20;;;;;;;15.02;6.03;;;;;;;;;;4964825;28;92776;-83
2023/10/02 01:12:49;;;;;;;;;;;;;;;;;;4951134;28;93006;-82
2023/10/02 01:15:19;;;;;;;14.27;5.68;;;;;;;;;;4949934;28;94143;-82
2023/10/02 01:17:53;;;;;;;15.85;5.72;;;;;;;;;;4952906;28;92807;-81
2023/10/02 01:20:21;;;;;;;15.35;5.68;;;;;;;;;;4948240;28;95417;-82
2023/10/02 01:22:51;;;;;;;;;;;;;;;;;;4944262;28;93634;-83
2023/10/02 01:25:23;;;;;;;17.52;6.15;;;;;;;;;;4951861;28;92519;-81
2023/10/02 01:27:51;;;;;;;14.57;6.00;;;;;;;;;;4948192;28;93206;-81
2023/10/02 01:30:20;;;;;;;14.27;5.93;;;;;;;;;;4940894;28;92502;-82
2023/10/02 01:35:38;;;;;;;;;;;;;;;;;;4960718;28;95598;-82
2023/10/02 01:38:18;;;;;;;14.30;5.85;;;;;;;;;;4947717;28;94399;-82
2023/10/02 01:40:48;;;;;;;14.88;5.85;;;;;;;;;;4948152;28;92939;-82
2023/10/02 01:43:16;;;;;;;15.77;6.15;;;;;;;;;;4949158;28;92447;-82
2023/10/02 01:45:43;;;;;;;13.20;5.75;;;;;;;;;;4947815;28;95739;-83
2023/10/02 01:48:15;;;;;;;13.93;5.50;;;;;;;;;;4962603;28;93155;-83
2023/10/02 01:50:45;;;;;;;19.73;5.90;;;;;;;;;;4947316;28;93011;-81
2023/10/02 01:53:30;;;;;;;15.35;6.32;;;;;;;;;;4963789;28;94447;-81
2023/10/02 01:56:00;;;;;;;14.70;5.60;;;;;;;;;;4946824;28;96849;-81
2023/10/02 01:58:27;;;;;;;15.25;5.80;;;;;;;;;;4950775;28;92504;-81
2023/10/02 02:00:54;;;;;;;13.45;5.78;;;;;;;;;;4949542;28;95762;-81
2023/10/02 02:03:22;;;;;;;13.10;5.65;;;;;;;;;;4964400;28;91846;-81
2023/10/02 02:05:49;;;;;;;14.98;5.68;;;;;;;;;;4928480;28;93176;-81
2023/10/02 02:08:21;;;;;;;15.02;5.75;;;;;;;;;;4950025;28;93024;-81
2023/10/02 02:10:53;;;;;;;15.55;5.85;;;;;;;;;;4947872;28;94766;-81
2023/10/02 02:13:21;;;;;;;16.77;6.95;;;;;;;;;;4931879;28;96037;-82
2023/10/02 02:16:07;;;;;;;14.70;5.88;;;;;;;;;;4935192;28;93102;-81
2023/10/02 02:18:34;;;;;;;13.73;5.40;;;;;;;;;;4930068;28;93290;-82
2023/10/02 02:21:02;;;;;;;12.48;5.63;;;;;;;;;;4942671;28;95792;-81
2023/10/02 02:23:30;;;;;;;14.73;5.88;;;;;;;;;;4932507;28;92908;-81
2023/10/02 02:25:56;;;;;;;;;;;;;;;;;;4929530;28;93574;-81
2023/10/02 02:28:23;;;;;;;13.85;5.70;;;;;;;;;;4930095;28;95028;-81
2023/10/02 02:30:49;;;;;;;12.48;5.85;;;;;;;;;;4929890;28;92991;-82
2023/10/02 02:33:16;;;;;;;13.95;5.88;;;;;;;;;;4931936;28;94041;-80
2023/10/02 02:35:44;;;;;;;12.65;5.95;;;;;;;;;;4931239;28;96413;-81
2023/10/02 02:38:16;;;;;;;14.20;5.93;;;;;;;;;;4928536;28;92546;-81
2023/10/02 02:40:43;;;;;;;14.10;6.15;;;;;;;;;;4930269;28;92819;-81
2023/10/02 02:43:19;;;;;;;13.48;5.63;;;;;;;;;;4932998;28;93003;-81
2023/10/02 02:45:45;;;;;;;13.75;5.45;;;;;;;;;;4957820;28;92511;-80
2023/10/02 02:48:15;;;;;;;15.15;6.20;;;;;;;;;;4952343;28;97790;-80
2023/10/02 02:50:43;;;;;;;13.98;5.63;;;;;;;;;;4966877;28;92499;-80
2023/10/02 02:53:17;;;;;;;13.95;5.88;;;;;;;;;;4963973;28;95986;-81
2023/10/02 02:55:44;;;;;;;14.10;6.00;;;;;;;;;;4951567;28;93240;-82
2023/10/02 02:58:11;;;;;;;12.77;5.05;;;;;;;;;;4952362;28;92642;-82
2023/10/02 03:00:39;;;;;;;14.50;5.78;;;;;;;;;;4954392;28;95844;-82
2023/10/02 03:03:32;;;;;;;13.68;5.50;;;;;;;;;;4951857;28;93219;-81
2023/10/02 03:05:58;;;;;;;14.73;6.20;;;;;;;;;;4951137;28;92731;-81
2023/10/02 03:08:37;;;;;;;14.40;6.15;;;;;;;;;;4954358;28;92834;-81
2023/10/02 03:11:07;;;;;;;15.48;6.57;;;;;;;;;;4952519;28;92512;-82
2023/10/02 03:13:34;;;;;;;13.13;5.13;;;;;;;;;;4930226;28;94171;-82
2023/10/02 03:16:10;;;;;;;14.55;5.55;;;;;;;;;;4931539;28;92851;-82
2023/10/02 03:18:36;;;;;;;13.82;5.65;;;;;;;;;;4926561;28;91792;-81
2023/10/02 03:23:38;;;;;;;13.20;5.60;;;;;;;;;;4955002;28;93173;-81
2023/10/02 03:29:21;;;;;;;15.75;5.88;;;;;;;;;;4946809;28;95323;-82
2023/10/02 03:31:49;;;;;;;13.35;5.53;;;;;;;;;;4951829;28;93298;-83
2023/10/02 03:34:27;;;;;;;14.00;6.05;;;;;;;;;;4950984;28;93275;-82
2023/10/02 03:40:00;;;;;;;14.15;5.50;;;;;;;;;;4950587;28;92881;-83
2023/10/02 03:42:32;;;;;;;16.73;6.13;;;;;;;;;;4938900;28;97644;-82
2023/10/02 03:45:00;;;;;;;15.45;5.78;;;;;;;;;;4960564;28;91914;-83
2023/10/02 03:47:30;;;;;;;12.63;5.53;;;;;;;;;;4938641;28;92415;-83
2023/10/02 03:50:00;;;;;;;13.40;5.63;;;;;;;;;;4950583;28;94776;-82
2023/10/02 03:52:30;;;;;;;16.50;5.68;;;;;;;;;;4935494;28;95509;-82
2023/10/02 03:54:57;;;;;;;13.13;5.72;;;;;;;;;;4930863;28;94278;-82
2023/10/02 03:57:47;;;;;;;15.45;6.07;;;;;;;;;;4931880;28;93113;-83
2023/10/02 04:00:23;;;;;;;14.05;5.65;;;;;;;;;;4952625;28;94190;-81
2023/10/02 04:02:51;;;;;;;14.32;5.15;;;;;;;;;;4950793;28;92719;-82
2023/10/02 04:08:22;;;;;;;13.35;5.50;;;;;;;;;;4947701;28;110393;-82
2023/10/02 04:10:56;;;;;;;15.10;5.88;;;;;;;;;;4938444;28;92684;-82
2023/10/02 04:13:32;;;;;;;15.07;5.80;;;;;;;;;;4962151;28;93284;-82
2023/10/02 04:18:46;;;;;;;15.00;5.80;;;;;;;;;;4949677;28;95612;-82
2023/10/02 04:21:14;;;;;;;17.10;5.63;;;;;;;;;;4949761;28;92772;-82
2023/10/02 04:23:42;;;;;;;14.23;5.32;;;;;;;;;;4953806;28;92894;-82
2023/10/02 04:26:19;;;;;;;15.02;5.60;;;;;;;;;;4952732;28;95861;-82
2023/10/02 04:28:54;;;;;;;13.60;5.45;;;;;;;;;;4941095;28;92521;-82
2023/10/02 04:31:23;;;;;;;14.07;5.43;;;;;;;;;;4957347;28;92868;-81
2023/10/02 04:34:14;;;;;;;14.20;5.63;;;;;;;;;;4956229;28;93024;-81
2023/10/02 04:36:41;;;;;;;15.07;6.00;;;;;;;;;;4959470;28;91719;-83
2023/10/02 04:42:11;;;;;;;15.20;6.30;;;;;;;;;;4956352;28;92472;-83
2023/10/02 04:44:44;;;;;;;14.50;5.53;;;;;;;;;;4960665;28;95293;-82
2023/10/02 04:47:18;;;;;;;13.27;5.63;;;;;;;;;;4953255;28;92416;-82
2023/10/02 04:55:24;;;;;;;15.57;5.97;;;;;;;;;;4947874;28;94153;-84
2023/10/02 04:57:54;;;;;;;14.93;5.90;;;;;;;;;;4950656;28;92608;-83
2023/10/02 05:00:32;;;;;;;14.77;6.18;;;;;;;;;;4947292;28;95875;-83
2023/10/02 05:03:18;;;;;;;14.52;5.63;;;;;;;;;;4953428;28;92561;-83
2023/10/02 05:05:49;;;;;;;14.65;6.22;;;;;;;;;;4950357;28;93125;-82
2023/10/02 05:08:31;;;;;;;15.50;5.82;;;;;;;;;;4964620;28;97580;-82
2023/10/02 05:11:04;;;;;;;14.98;6.00;;;;;;;;;;4948906;28;94890;-83
2023/10/02 05:16:19;;;;;;;14.32;5.68;;;;;;;;;;4945384;28;100239;-83
2023/10/02 05:18:47;;;;;;;14.55;5.85;;;;;;;;;;4951586;28;92437;-83
2023/10/02 05:21:17;;;;;;;15.45;6.38;;;;;;;;;;4950190;28;93309;-83
2023/10/02 05:23:56;;;;;;;14.65;6.00;;;;;;;;;;4948586;28;94680;-83
2023/10/02 05:26:39;;;;;;;15.70;6.20;;;;;;;;;;4953028;28;92745;-83
2023/10/02 05:29:06;;;;;;;13.40;5.75;;;;;;;;;;4951395;28;92226;-84
2023/10/02 05:31:40;;;;;;;14.55;5.70;;;;;;;;;;4951632;28;92553;-83
2023/10/02 05:34:07;;;;;;;14.00;6.30;;;;;;;;;;4951469;28;92374;-82
2023/10/02 05:36:35;;;;;;;15.35;6.22;;;;;;;;;;4948571;28;94959;-82
2023/10/02 05:39:28;;;;;;;13.82;5.90;;;;;;;;;;4951544;28;92507;-81
2023/10/02 05:41:56;;;;;;;16.30;5.82;;;;;;;;;;4946037;28;93551;-81
2023/10/02 05:44:25;;;;;;;15.75;6.25;;;;;;;;;;4945997;28;93280;-82
2023/10/02 05:46:55;;;;;;;14.38;5.75;;;;;;;;;;4970358;28;92400;-82
2023/10/02 05:49:23;;;;;;;13.82;5.90;;;;;;;;;;4967550;28;92925;-82
2023/10/02 05:52:02;;;;;;;14.05;6.10;;;;;;;;;;4948197;28;92508;-82
2023/10/02 05:54:29;;;;;;;13.10;5.93;;;;;;;;;;4949799;28;92752;-82
2023/10/02 05:57:08;;;;;;;17.05;5.60;;;;;;;;;;4948430;28;93176;-82
2023/10/02 05:59:45;;;;;;;14.95;5.85;;;;;;;;;;4948731;28;93317;-82
2023/10/02 06:02:12;;;;;;;14.73;5.85;;;;;;;;;;4946744;28;99883;-82
2023/10/02 06:04:43;;;;;;;14.82;6.25;;;;;;;;;;4948789;28;93454;-83
2023/10/02 06:07:11;;;;;;;18.17;5.95;;;;;;;;;;4948800;28;92765;-83
2023/10/02 06:09:45;;;;;;;15.27;5.72;;;;;;;;;;4951673;28;93334;-84
2023/10/02 06:12:14;;;;;;;14.70;4.95;;;;;;;;;;4946048;28;94773;-84
2023/10/02 06:14:42;;;;;;;12.90;5.07;;;;;;;;;;4948916;28;93524;-84
2023/10/02 06:17:11;;;;;;;14.70;5.30;;;;;;;;;;4952543;28;92429;-84
2023/10/02 06:19:42;;;;;;;15.02;5.60;;;;;;;;;;4957284;28;91794;-82
2023/10/02 06:22:13;;;;;;;14.18;5.65;;;;;;;;;;4950755;28;92907;-84
2023/10/02 06:24:40;;;;;;;15.18;5.70;;;;;;;;;;4951783;28;94735;-83
2023/10/02 06:27:14;;;;;;;13.68;5.30;;;;;;;;;;4948309;28;95101;-84
2023/10/02 06:29:44;;;;;;;16.17;5.22;;;;;;;;;;4948188;28;97587;-82
2023/10/02 06:32:14;;;;;;;14.07;5.13;;;;;;;;;;4935093;28;97630;-82
2023/10/02 06:34:44;;;;;;;12.85;5.40;;;;;;;;;;4933490;28;92481;-82
2023/10/02 06:37:19;;;;;;;13.55;5.30;;;;;;;;;;4937478;28;92927;-82
2023/10/02 06:39:46;;;;;;;15.45;5.10;;;;;;;;;;4939340;28;92422;-82
2023/10/02 06:42:16;;;;;;;12.40;5.15;;;;;;;;;;4958234;28;98183;-83
2023/10/02 06:44:52;;;;;;;13.10;4.95;;;;;;;;;;4966905;28;92265;-82
2023/10/02 06:47:21;;;;;;;13.65;4.78;;;;;;;;;;4942303;28;92914;-81
2023/10/02 06:49:51;;;;;;;13.25;5.22;;;;;;;;;;4950283;28;92975;-82
2023/10/02 06:52:19;;;;;;;13.70;4.97;;;;;;;;;;4937823;28;96636;-82
2023/10/02 06:54:48;;;;;;;12.15;5.38;;;;;;;;;;4958588;28;92792;-82
2023/10/02 06:57:16;;;;;;;12.43;5.20;;;;;;;;;;4959796;28;94114;-82
2023/10/02 06:59:51;;;;;;;14.52;5.70;;;;;;;;;;4966428;28;92454;-82
2023/10/02 07:02:26;;;;;;;12.15;4.55;;;;;;;;;;4971721;28;95835;-82
2023/10/02 07:04:55;;;;;;;12.75;4.78;;;;;;;;;;4966680;28;95099;-83
2023/10/02 07:07:25;;;;;;;12.45;5.05;;;;;;;;;;4969883;28;93127;-82
2023/10/02 07:09:54;;;;;;;11.60;4.68;;;;;;;;;;4972800;28;91692;-82
2023/10/02 07:12:22;;;;;;;11.40;4.78;;;;;;;;;;4973566;28;92313;-82
2023/10/02 07:14:48;;;;;;;13.07;4.80;;;;;;;;;;4973561;28;92557;-82
2023/10/02 07:17:18;;;;;;;11.55;4.47;;;;;;;;;;4973636;28;95332;-82
2023/10/02 07:19:48;;;;;;;13.07;5.30;;;;;;;;;;4971638;28;91976;-82
2023/10/02 07:22:22;;;;;;;11.40;4.90;;;;;;;;;;4959247;28;97109;-82
2023/10/02 07:24:48;;;;;;;12.77;5.15;;;;;;;;;;4957916;28;92390;-82
2023/10/02 07:27:28;;;;;;;12.43;4.90;;;;;;;;;;4958165;28;93126;-82
2023/10/02 07:29:56;;;;;;;12.93;5.32;;;;;;;;;;4944471;28;93564;-83
2023/10/02 07:32:23;;;;;;;12.30;5.15;;;;;;;;;;4956225;28;94033;-83
2023/10/02 07:34:51;;;;;;;12.65;5.18;;;;;;;;;;4967455;28;92694;-83
2023/10/02 07:37:21;;;;;;;12.50;5.05;;;;;;;;;;4958358;28;93205;-83
2023/10/02 07:39:57;;;;;;;13.65;5.28;;;;;;;;;;4945462;28;94831;-83
2023/10/02 07:42:28;;;;;;;12.88;5.25;;;;;;;;;;4945155;28;94847;-83
2023/10/02 07:44:56;;;;;;;12.70;5.43;;;;;;;;;;4944126;28;92613;-83
2023/10/02 07:47:23;;;;;;;12.63;5.15;;;;;;;;;;4937794;28;92500;-83
2023/10/02 07:49:55;;;;;;;11.48;4.95;;;;;;;;;;4964368;28;92880;-83
2023/10/02 07:52:35;;;;;;;12.48;5.63;;;;;;;;;;4950639;28;93049;-83
2023/10/02 07:55:02;;;;;;;11.88;4.70;;;;;;;;;;4944748;28;92438;-83
2023/10/02 07:57:32;;;;;;;12.35;5.45;;;;;;;;;;4948740;28;95506;-83
2023/10/02 08:00:33;;;;;;;11.98;5.22;;;;;;;;;;4951596;28;91749;-83
2023/10/02 08:02:53;;;;;;;13.48;5.18;;;;;;;;;;4945521;28;92552;-83
2023/10/02 08:05:20;;;;;;;11.93;4.75;;;;;;;;;;4945489;28;94991;-83
2023/10/02 08:07:47;;;;;;;13.10;5.05;;;;;;;;;;4966924;28;94866;-83
2023/10/02 08:10:14;;;;;;;12.48;5.30;;;;;;;;;;4955393;28;95227;-83
2023/10/02 08:12:54;;;;;;;11.60;4.97;;;;;;;;;;4952081;28;93405;-83
2023/10/02 08:15:32;;;;;;;11.98;5.10;;;;;;;;;;4950466;28;92676;-82
2023/10/02 08:18:03;;;;;;;13.02;5.20;;;;;;;;;;4936658;28;93014;-82
2023/10/02 08:20:37;;;;;;;11.27;4.78;;;;;;;;;;4949609;28;92997;-83
2023/10/02 08:23:21;;;;;;;11.90;4.93;;;;;;;;;;4951999;28;92519;-82
2023/10/02 08:26:00;;;;;;;12.18;5.00;;;;;;;;;;4949856;28;93203;-83
2023/10/02 08:28:48;;;;;;;11.38;4.55;;;;;;;;;;4949946;28;92889;-83
2023/10/02 08:31:14;;;;;;;12.70;4.85;;;;;;;;;;4949606;28;93332;-83
2023/10/02 08:33:43;;;;;;;11.95;5.07;;;;;;;;;;4948164;28;96463;-83
2023/10/02 08:36:28;;;;;;;12.63;5.03;;;;;;;;;;4949844;28;92823;-83
2023/10/02 08:38:55;;;;;;;11.70;4.75;;;;;;;;;;4950029;28;92880;-83
2023/10/02 08:41:44;;;;;;;13.70;5.50;;;;;;;;;;4949944;28;93185;-83
2023/10/02 08:44:12;;;;;;;12.10;4.90;;;;;;;;;;4952474;28;92619;-83
2023/10/02 08:46:42;;;;;;;11.35;4.78;;;;;;;;;;4957622;28;93401;-81
2023/10/02 08:49:10;;;;;;;11.23;4.90;;;;;;;;;;4949843;28;92408;-81
2023/10/02 08:51:38;;;;;;;10.63;4.68;;;;;;;;;;4948572;28;94251;-82
2023/10/02 08:54:05;;;;;;;11.20;4.95;;;;;;;;;;4948715;28;93393;-82
2023/10/02 08:56:48;;;;;;;12.63;4.80;;;;;;;;;;4949853;28;92498;-82
2023/10/02 08:59:27;;;;;;;12.65;4.93;;;;;;;;;;4949424;28;95237;-82
2023/10/02 09:02:08;;;;;;;11.85;4.53;;;;;;;;;;4958566;28;93240;-82
2023/10/02 09:04:35;;;;;;;11.93;4.93;;;;;;;;;;4955237;28;93036;-83
2023/10/02 09:07:14;;;;;;;13.40;5.18;;;;;;;;;;4954318;28;93799;-82
2023/10/02 09:09:54;;;;;;;12.35;5.03;;;;;;;;;;4960095;28;93156;-83
2023/10/02 09:12:22;;;;;;;11.38;4.70;;;;;;;;;;4955356;28;97953;-82
2023/10/02 09:14:52;;;;;;;13.75;4.85;;;;;;;;;;4949433;28;93519;-82
2023/10/02 09:17:23;;;;;;;12.13;4.88;;;;;;;;;;4951807;28;92016;-83
2023/10/02 09:20:02;;;;;;;15.00;4.90;;;;;;;;;;4964911;28;96548;-83
2023/10/02 09:22:37;;;;;;;11.65;5.20;;;;;;;;;;4947694;28;92999;-83
2023/10/02 09:25:13;;;;;;;11.65;4.97;;;;;;;;;;4947810;28;94898;-83
2023/10/02 09:27:56;;;;;;;13.35;4.78;;;;;;;;;;4949751;28;95765;-83
2023/10/02 09:33:08;;;;;;;11.35;4.55;;;;;;;;;;4952573;28;92490;-83
2023/10/02 09:35:58;;;;;;;12.18;4.93;;;;;;;;;;4948051;28;93579;-83
2023/10/02 09:38:46;;;;;;;11.70;5.03;;;;;;;;;;4949258;28;92860;-83
2023/10/02 09:41:15;;;;;;;11.77;4.93;;;;;;;;;;4947635;28;95941;-83
2023/10/02 09:43:42;;;;;;;10.93;4.32;;;;;;;;;;4950074;28;92165;-83
2023/10/02 09:46:21;;;;;;;11.88;4.32;;;;;;;;;;4954639;28;92917;-83
2023/10/02 09:51:25;;;;;;;10.35;4.40;;;;;;;;;;4935311;28;108981;-83
2023/10/02 09:54:08;;;;;;;11.27;4.60;;;;;;;;;;4917069;28;93873;-83
2023/10/02 09:56:51;;;;;;;12.10;4.70;;;;;;;;;;4954058;28;95626;-82
2023/10/02 09:59:20;;;;;;;10.93;4.63;;;;;;;;;;4944251;28;92745;-82
2023/10/02 10:02:07;;;;;;;12.20;4.70;;;;;;;;;;4955741;28;93007;-82
2023/10/02 10:05:00;;;;;;;12.40;5.00;;;;;;;;;;4950560;28;93154;-82
2023/10/02 10:08:17;;;;;;;11.80;5.13;;;;;;;;;;4965099;28;92417;-82
2023/10/02 10:10:47;;;;;;;11.35;4.70;;;;;;;;;;4951972;28;98567;-83
2023/10/02 10:13:24;;;;;;;11.02;4.72;;;;;;;;;;4951913;28;95064;-83
2023/10/02 10:16:21;;;;;;;12.13;4.68;;;;;;;;;;4943697;28;92890;-83
2023/10/02 10:21:55;;;;;;;12.20;4.97;;;;;;;;;;4953262;28;92548;-83
2023/10/02 10:24:34;;;;;;;10.30;4.55;;;;;;;;;;4955142;28;97304;-83
2023/10/02 10:27:03;;;;;;;11.55;4.68;;;;;;;;;;4950825;28;93654;-83
2023/10/02 10:29:37;;;;;;;11.50;4.50;;;;;;;;;;4952439;28;93273;-83
2023/10/02 10:32:14;;;;;;;12.15;4.90;;;;;;;;;;4955650;28;92970;-83
2023/10/02 10:35:12;;;;;;;12.05;4.72;;;;;;;;;;4954627;28;93703;-83
2023/10/02 10:37:46;;;;;;;10.80;4.68;;;;;;;;;;4949687;28;91728;-83
2023/10/02 10:40:44;;;;;;;12.38;5.18;;;;;;;;;;4951518;28;96931;-84
2023/10/02 10:43:14;;;;;;;12.75;5.57;;;;;;;;;;4958310;28;93634;-82
2023/10/02 10:45:41;;;;;;;11.63;4.45;;;;;;;;;;4949837;28;95229;-83
2023/10/02 10:48:18;;;;;;;;;;;;;;;;;;4951888;28;93022;-84
2023/10/02 10:51:03;;;;;;;11.38;4.60;;;;;;;;;;4940213;28;92910;-84
2023/10/02 10:53:30;;;;;;;11.10;4.22;;;;;;;;;;4951991;28;93872;-84
2023/10/02 10:56:05;;;;;;;10.32;4.40;;;;;;;;;;4950931;28;93723;-84
2023/10/02 10:58:34;;;;;;;11.02;4.75;;;;;;;;;;4951351;28;92379;-83
2023/10/02 11:01:05;;;;;;;11.57;4.60;;;;;;;;;;4953425;28;94730;-83
2023/10/02 11:03:32;;;;;;;11.35;4.65;;;;;;;;;;4949837;28;92801;-83
2023/10/02 11:06:02;;;;;;;11.13;4.68;;;;;;;;;;4953695;28;92558;-83
2023/10/02 11:08:30;;;;;;;9.63;4.15;;;;;;;;;;4951633;28;93310;-83
2023/10/02 11:11:00;;;;;;;11.40;4.90;;;;;;;;;;4950220;28;94781;-83
2023/10/02 11:13:28;;;;;;;11.25;4.90;;;;;;;;;;4948989;28;95405;-83
2023/10/02 11:15:58;;;;;;;;;;;;;;;;;;4954904;28;93556;-82
2023/10/02 11:18:26;;;;;;;12.23;4.53;;;;;;;;;;4960087;28;97453;-83
2023/10/02 11:20:54;;;;;;;11.20;4.40;;;;;;;;;;4953993;28;92829;-83
2023/10/02 11:23:43;;;;;;;9.85;4.22;;;;;;;;;;4948926;28;93244;-83
2023/10/02 11:26:12;;;;;;;10.07;4.40;;;;;;;;;;4935693;28;92781;-83
2023/10/02 11:28:40;;;;;;;9.68;4.13;;;;;;;;;;4952859;28;92819;-84
2023/10/02 11:31:29;;;;;;;11.30;4.30;;;;;;;;;;4951224;28;92426;-83
2023/10/02 11:34:02;;;;;;;10.27;4.00;;;;;;;;;;4950655;28;93221;-83
2023/10/02 11:36:55;;;;;;;10.35;4.20;;;;;;;;;;4962927;28;97531;-84
2023/10/02 11:39:27;;;;;;;9.60;4.05;;;;;;;;;;4950902;28;92524;-84
2023/10/02 11:41:54;;;;;;;10.05;4.28;;;;;;;;;;4949890;28;92505;-84
2023/10/02 11:44:22;;;;;;;10.30;4.00;;;;;;;;;;4955419;28;93129;-83
2023/10/02 11:46:48;;;;;;;11.40;4.57;;;;;;;;;;4954681;28;92927;-84
2023/10/02 11:49:16;;;;;;;8.98;3.83;;;;;;;;;;4950834;28;94813;-84
2023/10/02 11:51:44;;;;;;;10.38;4.63;;;;;;;;;;4953658;28;93313;-84
2023/10/02 11:54:13;;;;;;;10.95;4.57;;;;;;;;;;4950927;28;97475;-84
2023/10/02 11:56:42;;;;;;;9.95;4.00;;;;;;;;;;4949802;28;95813;-84
2023/10/02 11:59:14;;;;;;;9.48;4.20;;;;;;;;;;4957980;28;92718;-84
2023/10/02 12:01:43;;;;;;;11.07;4.38;;;;;;;;;;4952084;28;100688;-84
2023/10/02 12:04:10;;;;;;;9.82;4.28;;;;;;;;;;4944611;28;92479;-84
2023/10/02 12:06:38;;;;;;;9.55;4.20;;;;;;;;;;4926517;28;92643;-83
2023/10/02 12:09:05;;;;;;;10.68;4.20;;;;;;;;;;4928351;28;93206;-83
2023/10/02 12:11:32;;;;;;;10.55;4.18;;;;;;;;;;4934780;28;93164;-82
2023/10/02 12:13:58;;;;;;;9.98;4.22;;;;;;;;;;4935461;28;92474;-83
2023/10/02 12:16:26;;;;;;;9.35;3.78;;;;;;;;;;4929969;28;93987;-84
2023/10/02 12:18:53;;;;;;;9.10;3.83;;;;;;;;;;4909620;28;91882;-84
2023/10/02 12:21:21;;;;;;;10.73;4.22;;;;;;;;;;4928229;28;94704;-83
2023/10/02 12:23:48;;;;;;;8.75;3.95;;;;;;;;;;4929145;28;94298;-84
2023/10/02 12:26:15;;;;;;;9.35;4.10;;;;;;;;;;4927286;28;94919;-83
2023/10/02 12:28:42;;;;;;;9.70;3.85;;;;;;;;;;4924422;28;95570;-83
2023/10/02 12:31:15;;;;;;;9.43;3.53;;;;;;;;;;4927634;28;95590;-83
2023/10/02 12:33:42;;;;;;;9.32;4.15;;;;;;;;;;4929209;28;92485;-83
2023/10/02 12:36:10;;;;;;;10.30;4.10;;;;;;;;;;4922072;28;92476;-83
2023/10/02 12:38:36;;;;;;;10.07;4.00;;;;;;;;;;4930234;28;92559;-83
2023/10/02 12:41:10;;;;;;;8.90;3.88;;;;;;;;;;4930465;28;93299;-83
2023/10/02 12:43:36;;;;;;;8.52;3.80;;;;;;;;;;4945539;28;92951;-83
2023/10/02 12:46:06;;;;;;;9.18;3.70;;;;;;;;;;4929470;28;92464;-83
2023/10/02 12:48:33;;;;;;;9.82;3.85;;;;;;;;;;4928098;28;94939;-83
2023/10/02 12:51:03;;;;;;;10.27;4.18;;;;;;;;;;4936805;28;98323;-83
2023/10/02 12:53:30;;;;;;;9.32;4.00;;;;;;;;;;4955495;28;92887;-83
2023/10/02 12:55:58;;;;;;;8.80;3.63;;;;;;;;;;4956522;28;92651;-83
2023/10/02 12:58:24;;;;;;;9.30;3.80;;;;;;;;;;4950426;28;92494;-83
2023/10/02 13:00:51;;;;;;;9.88;4.00;;;;;;;;;;4951432;28;96221;-83
2023/10/02 13:03:17;;;;;;;9.90;4.05;;;;;;;;;;4950238;28;94385;-83
2023/10/02 13:05:44;;;;;;;9.20;4.00;;;;;;;;;;4947836;28;92509;-83
2023/10/02 13:08:11;;;;;;;9.00;3.63;;;;;;;;;;4966613;28;98798;-84
2023/10/02 13:10:39;;;;;;;9.43;4.05;;;;;;;;;;4950104;28;97170;-83
2023/10/02 13:13:06;;;;;;;8.88;3.58;;;;;;;;;;4953162;28;92981;-83
2023/10/02 13:15:34;;;;;;;9.95;3.85;;;;;;;;;;4952779;28;94925;-82
2023/10/02 13:18:00;;;;;;;10.50;3.90;;;;;;;;;;4968056;28;92658;-81
2023/10/02 13:20:27;;;;;;;9.45;3.92;;;;;;;;;;4970609;28;92808;-82
2023/10/02 13:22:55;;;;;;;9.10;3.67;;;;;;;;;;4964132;28;93006;-82
2023/10/02 13:25:22;;;;;;;9.30;3.75;;;;;;;;;;4942585;28;92541;-81
2023/10/02 13:27:51;;;;;;;8.65;3.85;;;;;;;;;;4948428;28;93224;-81
2023/10/02 13:30:25;;;;;;;9.20;4.20;;;;;;;;;;4949135;28;93918;-80
2023/10/02 13:32:52;;;;;;;9.27;3.90;;;;;;;;;;4955107;28;91806;-80
2023/10/02 13:35:18;;;;;;;9.15;3.90;;;;;;;;;;4948009;28;92556;-79
2023/10/02 13:37:46;;;;;;;8.65;3.92;;;;;;;;;;4948593;28;93231;-81
2023/10/02 13:40:26;;;;;;;10.38;4.00;;;;;;;;;;4949655;28;94893;-80
2023/10/02 13:42:53;;;;;;;9.15;3.90;;;;;;;;;;4950042;28;92556;-80
2023/10/02 13:45:19;;;;;;;10.02;4.50;;;;;;;;;;4963642;28;93250;-81
2023/10/02 13:47:46;;;;;;;10.60;4.18;;;;;;;;;;4948167;28;93176;-83
2023/10/02 13:50:13;;;;;;;8.52;3.85;;;;;;;;;;4953511;28;93063;-81
2023/10/02 13:52:40;;;;;;;9.00;3.83;;;;;;;;;;4947402;28;93187;-81
2023/10/02 13:55:19;;;;;;;;;;;;;;;;;;4949862;28;92757;-81
2023/10/02 13:57:47;;;;;;;9.25;3.80;;;;;;;;;;4950852;28;92915;-81
2023/10/02 14:00:17;;;;;;;9.40;4.10;;;;;;;;;;4948091;28;92596;-81
2023/10/02 14:02:45;;;;;;;8.68;3.45;;;;;;;;;;4954923;28;93682;-81
2023/10/02 14:05:14;;;;;;;9.15;3.60;;;;;;;;;;4936244;28;94797;-81
2023/10/02 14:07:42;;;;;;;9.27;3.90;;;;;;;;;;4923116;28;98003;-82
2023/10/02 14:10:10;;;;;;;8.63;3.72;;;;;;;;;;4928940;28;93189;-82
2023/10/02 14:12:43;;;;;;;11.57;4.03;;;;;;;;;;4952174;28;92508;-82
2023/10/02 14:15:14;;;;;;;9.35;3.75;;;;;;;;;;4929346;28;92797;-82
2023/10/02 14:17:40;;;;;;;16.17;4.18;;;;;;;;;;4912942;28;93480;-81
2023/10/02 14:20:16;;;;;;;9.82;3.90;;;;;;;;;;4928041;28;92533;-81
2023/10/02 14:22:50;;;;;;;8.98;4.03;;;;;;;;;;4921417;28;92932;-80
2023/10/02 14:25:21;;;;;;;9.88;4.13;;;;;;;;;;4932354;28;92997;-81
2023/10/02 14:27:49;;;;;;;11.70;3.88;;;;;;;;;;4928873;28;92922;-81
2023/10/02 14:30:15;;;;;;;9.20;3.75;;;;;;;;;;4920032;28;98418;-81
2023/10/02 14:32:49;;;;;;;10.88;4.15;;;;;;;;;;4925009;28;92320;-81
2023/10/02 14:35:16;;;;;;;9.07;3.80;;;;;;;;;;4929142;28;92909;-81
2023/10/02 14:37:43;;;;;;;9.10;3.80;;;;;;;;;;4931898;28;93966;-80
2023/10/02 14:40:19;;;;;;;9.15;4.18;;;;;;;;;;4931251;28;92626;-81
2023/10/02 14:42:48;;;;;;;9.27;4.00;;;;;;;;;;4927254;28;93038;-82
2023/10/02 14:45:14;;;;;;;9.52;4.13;;;;;;;;;;4945717;28;93260;-83
2023/10/02 14:47:43;;;;;;;9.60;4.05;;;;;;;;;;4951673;28;92841;-82
2023/10/02 14:50:12;;;;;;;10.65;4.20;;;;;;;;;;4950096;28;94819;-82
2023/10/02 14:52:40;;;;;;;8.88;3.70;;;;;;;;;;4951505;28;92508;-82
2023/10/02 14:55:16;;;;;;;9.32;3.85;;;;;;;;;;4951488;28;94822;-82
2023/10/02 14:57:45;;;;;;;10.35;4.47;;;;;;;;;;4953170;28;93106;-82
2023/10/02 15:00:13;;;;;;;8.40;3.58;;;;;;;;;;4960500;28;93318;-82
2023/10/02 15:02:42;;;;;;;9.45;3.83;;;;;;;;;;4946522;28;93417;-82
2023/10/02 15:05:15;;;;;;;9.68;3.92;;;;;;;;;;4941133;28;93440;-82
2023/10/02 15:07:42;;;;;;;;;;;;;;;;;;4940601;28;92558;-82
2023/10/02 15:10:10;;;;;;;9.02;3.78;;;;;;;;;;4957736;28;105798;-82
2023/10/02 15:12:37;;;;;;;10.32;4.07;;;;;;;;;;4960949;28;92144;-81
2023/10/02 15:15:13;;;;;;;9.60;4.03;;;;;;;;;;4963438;28;92614;-81
2023/10/02 15:17:41;;;;;;;8.85;3.92;;;;;;;;;;4960657;28;93253;-81
2023/10/02 15:20:12;;;;;;;7.63;3.20;;;;;;;;;;4963515;28;95038;-82
2023/10/02 15:22:44;;;;;;;9.23;4.28;;;;;;;;;;4958929;28;95083;-81
2023/10/02 15:25:13;;;;;;;10.30;4.47;;;;;;;;;;4958297;28;94248;-82
2023/10/02 15:27:42;;;;;;;10.18;3.60;;;;;;;;;;4964025;28;92534;-83
2023/10/02 15:30:12;;;;;;;9.15;3.78;;;;;;;;;;4959430;28;93084;-82
2023/10/02 15:32:39;;;;;;;9.25;3.67;;;;;;;;;;4950161;28;92586;-82
2023/10/02 15:35:05;;;;;;;9.82;3.88;;;;;;;;;;4945216;28;92560;-83
2023/10/02 15:37:33;;;;;;;10.02;4.32;;;;;;;;;;4941919;28;92338;-81
2023/10/02 15:40:07;;;;;;;11.30;3.92;;;;;;;;;;4930329;28;93150;-84
2023/10/02 15:42:39;;;;;;;15.32;4.28;;;;;;;;;;4931853;28;93263;-83